createdAt,value
2023-02-20T00:00:27.382Z,99762.50
2023-02-20T00:03:15.217Z,99766.09
2023-02-20T00:05:42.978Z,99767.20
2023-02-20T00:08:10.947Z,99764.46
2023-02-20T00:10:38.711Z,99765.69
2023-02-20T00:13:06.476Z,99767.05
2023-02-20T00:15:34.241Z,99763.91
2023-02-20T00:18:02.003Z,99760.77
2023-02-20T00:20:30.687Z,99763.12
2023-02-20T00:22:58.363Z,99771.48
2023-02-20T00:25:26.113Z,99769.89
2023-02-20T00:27:53.879Z,99770.30
2023-02-20T00:30:21.542Z,99776.92
2023-02-20T00:32:49.343Z,99771.16
2023-02-20T00:35:17.070Z,99777.38
2023-02-20T00:37:44.835Z,99780.09
2023-02-20T00:40:12.598Z,99782.84
2023-02-20T00:42:40.365Z,99785.20
2023-02-20T00:45:08.237Z,99778.82
2023-02-20T00:47:35.897Z,99779.48
2023-02-20T00:50:03.658Z,99779.50
2023-02-20T00:52:31.423Z,99778.60
2023-02-20T00:54:59.184Z,99775.61
2023-02-20T00:57:26.955Z,99775.61
2023-02-20T00:59:54.609Z,99777.85
2023-02-20T01:02:22.272Z,99782.80
2023-02-20T01:04:50.037Z,99779.98
2023-02-20T01:07:17.696Z,99777.20
2023-02-20T01:09:45.357Z,99775.23
2023-02-20T01:12:13.021Z,99773.32
2023-02-20T01:14:42.013Z,99768.19
2023-02-20T01:17:09.675Z,99768.16
2023-02-20T01:19:37.640Z,99771.19
2023-02-20T01:22:08.941Z,99773.30
2023-02-20T01:24:36.752Z,99775.63
2023-02-20T01:27:04.413Z,99779.75
2023-02-20T01:29:32.185Z,99784.54
2023-02-20T01:32:00.088Z,99783.95
2023-02-20T01:34:28.119Z,99785.49
2023-02-20T01:36:55.881Z,99786.91
2023-02-20T01:39:23.646Z,99783.90
2023-02-20T01:41:51.307Z,99780.26
2023-02-20T01:44:19.072Z,99774.63
2023-02-20T01:46:46.739Z,99778.35
2023-02-20T01:49:14.499Z,99774.14
2023-02-20T01:51:42.177Z,99768.24
2023-02-20T01:54:09.927Z,99761.10
2023-02-20T01:56:37.792Z,99756.17
2023-02-20T01:59:05.458Z,99754.38
2023-02-20T02:01:33.284Z,99756.23
2023-02-20T02:04:01.030Z,99763.40
2023-02-20T02:06:29.568Z,99768.55
2023-02-20T02:08:57.193Z,99768.65
2023-02-20T02:11:24.990Z,99771.64
2023-02-20T02:13:52.755Z,99769.95
2023-02-20T02:16:20.705Z,99762.42
2023-02-20T02:18:48.483Z,99759.46
2023-02-20T02:21:16.246Z,99760.14
2023-02-20T02:23:43.906Z,99760.00
2023-02-20T02:26:11.790Z,99757.94
2023-02-20T02:28:39.843Z,99762.19
2023-02-20T02:31:07.652Z,99766.93
2023-02-20T02:33:35.578Z,99764.93
2023-02-20T02:36:03.246Z,99770.61
2023-02-20T02:38:31.001Z,99771.77
2023-02-20T02:40:58.659Z,99767.23
2023-02-20T02:43:26.424Z,99767.50
2023-02-20T02:45:54.209Z,99763.70
2023-02-20T02:48:21.853Z,99760.02
2023-02-20T02:50:49.615Z,99761.66
2023-02-20T02:53:17.260Z,99760.10
2023-02-20T02:55:44.939Z,99760.67
2023-02-20T02:58:12.703Z,99760.42
2023-02-20T03:00:40.944Z,99758.33
2023-02-20T03:03:08.879Z,99756.64
2023-02-20T03:05:46.747Z,99757.77
2023-02-20T03:08:14.520Z,99750.99
2023-02-20T03:10:42.396Z,99741.99
2023-02-20T03:13:12.814Z,99733.92
2023-02-20T03:15:40.566Z,99729.21
2023-02-20T03:18:11.015Z,99726.23
2023-02-20T03:20:39.067Z,99728.45
2023-02-20T03:23:06.740Z,99730.30
2023-02-20T03:25:34.398Z,99730.27
2023-02-20T03:28:02.156Z,99724.58
2023-02-20T03:30:29.906Z,99723.44
2023-02-20T03:33:16.742Z,99724.19
2023-02-20T03:36:03.440Z,99718.90
2023-02-20T03:38:49.948Z,99712.42
2023-02-20T03:41:36.244Z,99718.44
2023-02-20T03:44:04.024Z,99715.55
2023-02-20T03:46:31.668Z,99713.60
2023-02-20T03:48:59.290Z,99712.01
2023-02-20T03:51:27.000Z,99711.75
2023-02-20T03:53:54.755Z,99711.10
2023-02-20T03:56:22.518Z,99704.55
2023-02-20T03:58:50.179Z,99707.70
2023-02-20T04:01:18.479Z,99707.96
2023-02-20T04:03:46.220Z,99704.55
2023-02-20T04:06:14.105Z,99706.80
2023-02-20T04:08:42.058Z,99708.63
2023-02-20T04:11:10.026Z,99708.22
2023-02-20T04:13:37.791Z,99703.81
2023-02-20T04:16:05.556Z,99703.75
2023-02-20T04:18:33.317Z,99692.51
2023-02-20T04:21:01.080Z,99692.82
2023-02-20T04:23:28.741Z,99693.30
2023-02-20T04:25:56.405Z,99692.33
2023-02-20T04:28:24.064Z,99691.89
2023-02-20T04:30:51.780Z,99691.46
2023-02-20T04:33:19.485Z,99692.66
2023-02-20T04:35:47.248Z,99691.20
2023-02-20T04:38:15.038Z,99692.83
2023-02-20T04:40:42.773Z,99685.61
2023-02-20T04:43:10.542Z,99678.36
2023-02-20T04:45:38.204Z,99683.09
2023-02-20T04:48:05.971Z,99677.69
2023-02-20T04:50:33.624Z,99673.80
2023-02-20T04:53:01.286Z,99669.88
2023-02-20T04:55:29.204Z,99667.73
2023-02-20T04:57:58.554Z,99658.15
2023-02-20T05:00:26.183Z,99660.29
2023-02-20T05:02:53.887Z,99658.11
2023-02-20T05:05:21.642Z,99659.37
2023-02-20T05:07:49.311Z,99656.70
2023-02-20T05:10:17.077Z,99660.48
2023-02-20T05:12:44.730Z,99660.48
2023-02-20T05:15:12.392Z,99658.16
2023-02-20T05:17:40.156Z,99657.90
2023-02-20T05:20:07.921Z,99655.15
2023-02-20T05:22:35.685Z,99651.52
2023-02-20T05:25:03.344Z,99646.51
2023-02-20T05:27:31.009Z,99646.14
2023-02-20T05:29:58.772Z,99646.98
2023-02-20T05:32:26.432Z,99647.48
2023-02-20T05:34:54.093Z,99651.59
2023-02-20T05:37:21.757Z,99646.14
2023-02-20T05:39:49.526Z,99650.73
2023-02-20T05:42:17.286Z,99658.58
2023-02-20T05:44:44.945Z,99662.67
2023-02-20T05:47:12.710Z,99660.05
2023-02-20T05:49:40.370Z,99662.94
2023-02-20T05:52:11.860Z,99659.23
2023-02-20T05:54:39.807Z,99662.86
2023-02-20T05:57:07.553Z,99664.02
2023-02-20T05:59:35.321Z,99671.61
2023-02-20T06:02:03.083Z,99673.98
2023-02-20T06:04:30.897Z,99674.27
2023-02-20T06:06:58.815Z,99677.95
2023-02-20T06:09:26.578Z,99678.59
2023-02-20T06:11:54.448Z,99683.48
2023-02-20T06:14:22.214Z,99684.27
2023-02-20T06:16:49.877Z,99687.13
2023-02-20T06:19:17.941Z,99687.02
2023-02-20T06:21:45.565Z,99678.96
2023-02-20T06:24:13.371Z,99676.09
2023-02-20T06:26:41.540Z,99676.04
2023-02-20T06:29:09.217Z,99671.23
2023-02-20T06:31:37.109Z,99670.08
2023-02-20T06:34:05.042Z,99669.48
2023-02-20T06:36:32.807Z,99669.08
2023-02-20T06:39:00.495Z,99672.58
2023-02-20T06:41:28.231Z,99674.42
2023-02-20T06:43:55.895Z,99672.87
2023-02-20T06:46:23.690Z,99676.88
2023-02-20T06:48:51.412Z,99682.74
2023-02-20T06:51:19.084Z,99681.17
2023-02-20T06:53:46.746Z,99681.09
2023-02-20T06:56:15.846Z,99680.84
2023-02-20T06:58:43.474Z,99676.67
2023-02-20T07:01:11.215Z,99674.29
2023-02-20T07:03:38.931Z,99671.76
2023-02-20T07:06:06.692Z,99671.14
2023-02-20T07:08:40.809Z,99671.88
2023-02-20T07:11:26.896Z,99670.42
2023-02-20T07:13:54.970Z,99662.95
2023-02-20T07:16:22.793Z,99654.77
2023-02-20T07:18:50.701Z,99647.98
2023-02-20T07:21:18.472Z,99647.25
2023-02-20T07:23:46.537Z,99649.71
2023-02-20T07:26:14.382Z,99644.06
2023-02-20T07:28:42.373Z,99638.64
2023-02-20T07:31:10.049Z,99633.31
2023-02-20T07:33:38.107Z,99632.29
2023-02-20T07:36:05.868Z,99626.25
2023-02-20T07:38:33.735Z,99623.60
2023-02-20T07:41:01.394Z,99623.50
2023-02-20T07:43:29.057Z,99628.04
2023-02-20T07:45:56.859Z,99615.89
2023-02-20T07:48:24.584Z,99606.11
2023-02-20T07:50:53.070Z,99592.97
2023-02-20T07:53:20.730Z,99596.70
2023-02-20T07:55:48.388Z,99596.48
2023-02-20T07:58:16.051Z,99601.40
2023-02-20T08:00:43.816Z,99604.27
2023-02-20T08:03:11.489Z,99603.54
2023-02-20T08:05:48.614Z,99587.95
2023-02-20T08:08:16.735Z,99580.48
2023-02-20T08:10:44.395Z,99580.88
2023-02-20T08:13:12.169Z,99584.39
2023-02-20T08:15:41.785Z,99587.77
2023-02-20T08:18:18.698Z,99571.66
2023-02-20T08:20:52.243Z,99567.23
2023-02-20T08:23:20.002Z,99562.52
2023-02-20T08:25:47.785Z,99558.44
2023-02-20T08:28:15.536Z,99552.95
2023-02-20T08:30:43.293Z,99539.57
2023-02-20T08:33:10.956Z,99537.88
2023-02-20T08:35:38.634Z,99535.38
2023-02-20T08:38:06.279Z,99527.48
2023-02-20T08:40:34.043Z,99523.71
2023-02-20T08:43:01.910Z,99521.98
2023-02-20T08:45:29.802Z,99520.59
2023-02-20T08:47:59.690Z,99525.92
2023-02-20T08:50:27.350Z,99528.71
2023-02-20T08:52:55.015Z,99521.83
2023-02-20T08:55:22.674Z,99519.80
2023-02-20T08:57:50.447Z,99521.92
2023-02-20T09:00:19.304Z,99525.92
2023-02-20T09:02:47.254Z,99528.32
2023-02-20T09:05:15.164Z,99521.23
2023-02-20T09:07:43.131Z,99513.25
2023-02-20T09:10:10.794Z,99519.06
2023-02-20T09:12:42.290Z,99522.82
2023-02-20T09:15:10.119Z,99510.12
2023-02-20T09:17:37.880Z,99501.67
2023-02-20T09:20:09.893Z,99489.77
2023-02-20T09:22:37.603Z,99471.68
2023-02-20T09:25:05.581Z,99478.71
2023-02-20T09:27:33.238Z,99483.85
2023-02-20T09:30:01.005Z,99475.71
2023-02-20T09:32:28.822Z,99452.59
2023-02-20T09:34:57.978Z,99438.52
2023-02-20T09:37:25.725Z,99432.27
2023-02-20T09:39:53.387Z,99433.39
2023-02-20T09:42:21.051Z,99438.10
2023-02-20T09:44:48.812Z,99447.64
2023-02-20T09:47:16.476Z,99444.39
2023-02-20T09:49:44.132Z,99453.55
2023-02-20T09:52:11.896Z,99444.08
2023-02-20T09:54:39.773Z,99444.63
2023-02-20T09:57:07.431Z,99447.09
2023-02-20T09:59:35.067Z,99444.75
2023-02-20T10:02:02.876Z,99445.61
2023-02-20T10:04:30.599Z,99442.09
2023-02-20T10:06:58.236Z,99434.30
2023-02-20T10:09:25.855Z,99428.42
2023-02-20T10:11:53.490Z,99418.45
2023-02-20T10:14:21.245Z,99410.73
2023-02-20T10:16:49.549Z,99411.41
2023-02-20T10:19:18.018Z,99407.31
2023-02-20T10:21:45.679Z,99403.92
2023-02-20T10:24:13.343Z,99395.56
2023-02-20T10:26:41.008Z,99389.42
2023-02-20T10:29:08.887Z,99385.30
2023-02-20T10:31:36.808Z,99380.52
2023-02-20T10:34:05.017Z,99375.25
2023-02-20T10:36:32.788Z,99370.66
2023-02-20T10:39:02.029Z,99366.05
2023-02-20T10:41:29.844Z,99366.09
2023-02-20T10:43:57.606Z,99357.10
2023-02-20T10:46:25.316Z,99351.30
2023-02-20T10:48:53.140Z,99350.08
2023-02-20T10:51:20.902Z,99339.02
2023-02-20T10:53:48.564Z,99331.55
2023-02-20T10:56:16.226Z,99322.23
2023-02-20T10:58:43.887Z,99316.89
2023-02-20T11:01:11.720Z,99307.25
2023-02-20T11:03:39.611Z,99299.88
2023-02-20T11:06:07.886Z,99296.89
2023-02-20T11:08:36.369Z,99289.77
2023-02-20T11:11:03.972Z,99288.24
2023-02-20T11:13:31.648Z,99280.83
2023-02-20T11:15:59.474Z,99273.25
2023-02-20T11:18:28.548Z,99263.91
2023-02-20T11:20:56.927Z,99257.02
2023-02-20T11:23:24.614Z,99257.11
2023-02-20T11:25:52.252Z,99254.26
2023-02-20T11:28:20.013Z,99249.39
2023-02-20T11:30:47.799Z,99238.85
2023-02-20T11:33:15.547Z,99236.77
2023-02-20T11:35:43.309Z,99220.55
2023-02-20T11:38:11.896Z,99213.69
2023-02-20T11:40:39.662Z,99194.80
2023-02-20T11:43:07.319Z,99185.33
2023-02-20T11:45:35.086Z,99184.46
2023-02-20T11:48:02.748Z,99177.05
2023-02-20T11:50:30.410Z,99176.19
2023-02-20T11:52:58.074Z,99168.98
2023-02-20T11:55:27.529Z,99169.10
2023-02-20T11:57:55.438Z,99159.67
2023-02-20T12:00:23.108Z,99151.58
2023-02-20T12:02:50.868Z,99139.36
2023-02-20T12:05:19.027Z,99132.16
2023-02-20T12:07:46.900Z,99122.20
2023-02-20T12:10:14.670Z,99118.80
2023-02-20T12:12:42.323Z,99119.97
2023-02-20T12:15:10.087Z,99125.58
2023-02-20T12:17:37.751Z,99116.30
2023-02-20T12:20:05.415Z,99109.23
2023-02-20T12:22:33.078Z,99099.08
2023-02-20T12:25:00.839Z,99086.83
2023-02-20T12:27:28.600Z,99075.62
2023-02-20T12:29:56.271Z,99067.73
2023-02-20T12:32:25.984Z,99060.58
2023-02-20T12:34:53.634Z,99056.45
2023-02-20T12:37:21.295Z,99048.88
2023-02-20T12:39:48.957Z,99049.08
2023-02-20T12:42:17.442Z,99047.91
2023-02-20T12:44:45.203Z,99032.38
2023-02-20T12:47:12.975Z,99012.00
2023-02-20T12:49:40.637Z,99001.69
2023-02-20T12:52:08.290Z,98996.04
2023-02-20T12:54:35.952Z,98990.69
2023-02-20T12:57:03.616Z,98996.25
2023-02-20T12:59:31.274Z,99001.80
2023-02-20T13:01:59.042Z,99007.86
2023-02-20T13:04:26.719Z,99004.96
2023-02-20T13:06:56.696Z,99007.27
2023-02-20T13:09:24.378Z,98992.44
2023-02-20T13:11:51.978Z,98981.90
2023-02-20T13:14:19.618Z,98973.44
2023-02-20T13:16:47.365Z,98950.77
2023-02-20T13:19:15.025Z,98948.36
2023-02-20T13:21:42.689Z,98924.33
2023-02-20T13:24:10.352Z,98914.48
2023-02-20T13:26:38.442Z,98914.50
2023-02-20T13:29:06.084Z,98912.41
2023-02-20T13:31:33.768Z,98917.27
2023-02-20T13:34:01.505Z,98901.18
2023-02-20T13:36:29.167Z,98889.25
2023-02-20T13:38:56.937Z,98885.30
2023-02-20T13:41:24.595Z,98877.90
2023-02-20T13:43:52.259Z,98855.06
2023-02-20T13:46:24.844Z,98853.85
2023-02-20T13:48:52.710Z,98840.17
2023-02-20T13:51:25.398Z,98850.05
2023-02-20T13:53:53.141Z,98838.79
2023-02-20T13:56:20.843Z,98841.23
2023-02-20T13:58:48.752Z,98836.59
2023-02-20T14:01:16.414Z,98814.62
2023-02-20T14:03:44.128Z,98810.30
2023-02-20T14:06:12.247Z,98819.30
2023-02-20T14:08:41.907Z,98804.60
2023-02-20T14:11:09.742Z,98792.84
2023-02-20T14:13:41.191Z,98789.73
2023-02-20T14:16:09.161Z,98781.96
2023-02-20T14:18:36.925Z,98770.35
2023-02-20T14:21:04.690Z,98767.23
2023-02-20T14:23:34.011Z,98762.55
2023-02-20T14:26:01.625Z,98764.98
2023-02-20T14:28:29.487Z,98738.32
2023-02-20T14:30:57.281Z,98732.95
2023-02-20T14:33:25.354Z,98723.79
2023-02-20T14:35:53.022Z,98712.52
2023-02-20T14:38:20.783Z,98728.80
2023-02-20T14:40:48.541Z,98737.80
2023-02-20T14:43:16.614Z,98726.04
2023-02-20T14:45:44.321Z,98722.23
2023-02-20T14:48:12.037Z,98704.38
2023-02-20T14:50:39.699Z,98719.80
2023-02-20T14:53:07.667Z,98708.20
2023-02-20T14:55:35.437Z,98698.33
2023-02-20T14:58:03.946Z,98682.40
2023-02-20T15:00:31.604Z,98662.30
2023-02-20T15:02:59.367Z,98669.75
2023-02-20T15:05:27.209Z,98648.27
2023-02-20T15:07:54.829Z,98641.01
2023-02-20T15:10:22.525Z,98627.67
2023-02-20T15:12:50.189Z,98623.51
2023-02-20T15:15:18.056Z,98614.33
2023-02-20T15:17:45.822Z,98618.48
2023-02-20T15:20:13.482Z,98631.64
2023-02-20T15:22:41.250Z,98632.70
2023-02-20T15:25:09.010Z,98622.13
2023-02-20T15:27:36.690Z,98620.21
2023-02-20T15:30:04.465Z,98623.69
2023-02-20T15:32:33.838Z,98626.80
2023-02-20T15:35:01.602Z,98621.08
2023-02-20T15:37:38.188Z,98618.99
2023-02-20T15:40:11.262Z,98616.58
2023-02-20T15:42:38.925Z,98617.61
2023-02-20T15:45:06.688Z,98615.36
2023-02-20T15:47:34.351Z,98613.63
2023-02-20T15:50:02.018Z,98612.05
2023-02-20T15:52:29.775Z,98608.58
2023-02-20T15:54:57.950Z,98614.29
2023-02-20T15:57:25.717Z,98614.98
2023-02-20T15:59:56.042Z,98608.41
2023-02-20T16:02:24.864Z,98608.58
2023-02-20T16:04:52.801Z,98601.13
2023-02-20T16:07:20.780Z,98597.15
2023-02-20T16:09:48.532Z,98598.70
2023-02-20T16:12:16.496Z,98594.34
2023-02-20T16:14:44.272Z,98603.36
2023-02-20T16:17:12.036Z,98604.23
2023-02-20T16:19:42.772Z,98608.55
2023-02-20T16:22:11.136Z,98616.70
2023-02-20T16:24:40.331Z,98617.73
2023-02-20T16:27:23.171Z,98622.40
2023-02-20T16:29:52.040Z,98618.40
2023-02-20T16:32:20.053Z,98629.67
2023-02-20T16:34:47.881Z,98636.07
2023-02-20T16:37:15.740Z,98635.55
2023-02-20T16:39:43.608Z,98633.81
2023-02-20T16:42:11.373Z,98633.81
2023-02-20T16:44:39.197Z,98615.42
2023-02-20T16:47:09.765Z,98623.39
2023-02-20T16:49:39.579Z,98620.61
2023-02-20T16:52:11.951Z,98618.17
2023-02-20T16:54:39.635Z,98622.69
2023-02-20T16:57:07.267Z,98617.98
2023-02-20T16:59:34.886Z,98608.10
2023-02-20T17:02:02.638Z,98610.70
2023-02-20T17:04:30.464Z,98608.80
2023-02-20T17:06:58.125Z,98611.39
2023-02-20T17:09:33.849Z,98608.80
2023-02-20T17:12:08.609Z,98614.16
2023-02-20T17:14:36.368Z,98613.60
2023-02-20T17:17:04.955Z,98615.35
2023-02-20T17:19:33.743Z,98611.70
2023-02-20T17:22:01.398Z,98625.21
2023-02-20T17:24:29.073Z,98624.20
2023-02-20T17:26:56.857Z,98620.55
2023-02-20T17:29:25.511Z,98619.88
2023-02-20T17:31:53.428Z,98614.67
2023-02-20T17:34:21.249Z,98607.54
2023-02-20T17:36:49.643Z,98613.77
2023-02-20T17:39:17.390Z,98610.29
2023-02-20T17:41:45.150Z,98601.42
2023-02-20T17:44:12.778Z,98592.91
2023-02-20T17:46:40.475Z,98582.85
2023-02-20T17:49:08.089Z,98583.51
2023-02-20T17:51:35.729Z,98583.64
2023-02-20T17:54:03.493Z,98580.09
2023-02-20T17:56:31.341Z,98586.34
2023-02-20T17:58:59.065Z,98589.08
2023-02-20T18:01:27.782Z,98596.16
2023-02-20T18:03:55.910Z,98591.27
2023-02-20T18:06:23.620Z,98601.82
2023-02-20T18:08:51.371Z,98604.73
2023-02-20T18:11:19.031Z,98607.44
2023-02-20T18:13:46.796Z,98600.10
2023-02-20T18:16:14.825Z,98597.30
2023-02-20T18:18:42.735Z,98600.06
2023-02-20T18:21:10.382Z,98590.84
2023-02-20T18:23:38.008Z,98597.06
2023-02-20T18:26:05.646Z,98592.89
2023-02-20T18:28:33.252Z,98589.88
2023-02-20T18:31:00.939Z,98582.54
2023-02-20T18:33:28.606Z,98587.40
2023-02-20T18:36:07.503Z,98592.44
2023-02-20T18:38:43.993Z,98586.53
2023-02-20T18:41:12.401Z,98571.60
2023-02-20T18:43:42.797Z,98569.03
2023-02-20T18:46:10.537Z,98569.73
2023-02-20T18:48:38.224Z,98567.47
2023-02-20T18:51:05.993Z,98561.34
2023-02-20T18:53:33.593Z,98553.88
2023-02-20T18:56:01.213Z,98555.80
2023-02-20T18:58:30.364Z,98554.58
2023-02-20T19:00:59.257Z,98541.89
2023-02-20T19:03:26.955Z,98541.03
2023-02-20T19:05:54.623Z,98540.72
2023-02-20T19:08:23.267Z,98549.58
2023-02-20T19:10:51.002Z,98537.55
2023-02-20T19:13:18.732Z,98534.21
2023-02-20T19:15:46.392Z,98530.55
2023-02-20T19:18:14.054Z,98529.38
2023-02-20T19:20:41.701Z,98533.91
2023-02-20T19:23:10.288Z,98528.54
2023-02-20T19:25:38.380Z,98533.05
2023-02-20T19:28:06.955Z,98519.52
2023-02-20T19:30:34.756Z,98521.08
2023-02-20T19:33:02.485Z,98521.23
2023-02-20T19:35:30.145Z,98531.23
2023-02-20T19:37:57.926Z,98526.15
2023-02-20T19:40:25.673Z,98528.76
2023-02-20T19:42:53.334Z,98529.61
2023-02-20T19:45:21.000Z,98531.33
2023-02-20T19:47:48.760Z,98529.77
2023-02-20T19:50:16.542Z,98520.57
2023-02-20T19:52:44.699Z,98524.04
2023-02-20T19:55:12.360Z,98517.43
2023-02-20T19:57:40.022Z,98521.77
2023-02-20T20:00:10.652Z,98522.47
2023-02-20T20:02:38.476Z,98511.64
2023-02-20T20:05:06.299Z,98505.39
2023-02-20T20:07:34.046Z,98506.08
2023-02-20T20:10:01.711Z,98506.73
2023-02-20T20:12:47.938Z,98486.23
2023-02-20T20:15:15.669Z,98488.11
2023-02-20T20:17:43.331Z,98490.88
2023-02-20T20:20:11.402Z,98492.77
2023-02-20T20:22:39.049Z,98493.44
2023-02-20T20:25:06.832Z,98487.17
2023-02-20T20:27:36.126Z,98481.96
2023-02-20T20:30:03.814Z,98475.86
2023-02-20T20:32:31.550Z,98484.48
2023-02-20T20:34:59.322Z,98472.83
2023-02-20T20:37:27.838Z,98475.61
2023-02-20T20:39:56.496Z,98462.02
2023-02-20T20:42:25.505Z,98468.27
2023-02-20T20:44:53.346Z,98455.41
2023-02-20T20:47:20.999Z,98452.45
2023-02-20T20:49:48.662Z,98445.52
2023-02-20T20:52:16.343Z,98438.57
2023-02-20T20:54:44.098Z,98446.36
2023-02-20T20:57:11.851Z,98443.96
2023-02-20T20:59:39.513Z,98445.86
2023-02-20T21:02:07.279Z,98447.35
2023-02-20T21:04:35.825Z,98441.77
2023-02-20T21:07:03.699Z,98440.38
2023-02-20T21:09:31.388Z,98443.86
2023-02-20T21:11:59.048Z,98441.76
2023-02-20T21:14:28.474Z,98440.70
2023-02-20T21:16:57.649Z,98441.22
2023-02-20T21:19:25.414Z,98438.96
2023-02-20T21:21:53.029Z,98447.15
2023-02-20T21:24:20.672Z,98440.20
2023-02-20T21:26:48.402Z,98433.27
2023-02-20T21:29:16.059Z,98432.05
2023-02-20T21:31:43.887Z,98428.54
2023-02-20T21:34:11.794Z,98436.16
2023-02-20T21:36:39.556Z,98435.13
2023-02-20T21:39:07.224Z,98430.27
2023-02-20T21:41:53.927Z,98424.18
2023-02-20T21:44:27.874Z,98436.36
2023-02-20T21:46:55.706Z,98438.09
2023-02-20T21:49:23.367Z,98436.51
2023-02-20T21:51:51.126Z,98441.71
2023-02-20T21:54:18.788Z,98450.56
2023-02-20T21:56:46.554Z,98440.66
2023-02-20T21:59:14.316Z,98445.36
2023-02-20T22:01:41.935Z,98450.19
2023-02-20T22:04:09.715Z,98444.98
2023-02-20T22:06:37.272Z,98451.07
2023-02-20T22:09:23.942Z,98437.52
2023-02-20T22:12:10.208Z,98441.89
2023-02-20T22:14:56.604Z,98432.67
2023-02-20T22:17:43.168Z,98428.70
2023-02-20T22:20:29.510Z,98428.70
2023-02-20T22:23:16.111Z,98426.11
2023-02-20T22:26:02.519Z,98426.78
2023-02-20T22:28:48.943Z,98427.61
2023-02-20T22:31:35.774Z,98427.45
2023-02-20T22:34:22.345Z,98423.13
2023-02-20T22:37:09.149Z,98422.42
2023-02-20T22:39:55.964Z,98426.94
2023-02-20T22:42:42.366Z,98425.20
2023-02-20T22:45:29.173Z,98425.40
2023-02-20T22:48:15.782Z,98420.38
2023-02-20T22:51:02.183Z,98421.75
2023-02-20T22:53:48.582Z,98422.23
2023-02-20T22:56:34.980Z,98419.13
2023-02-20T22:59:21.691Z,98421.92
2023-02-20T23:02:08.345Z,98421.59
2023-02-20T23:04:55.006Z,98425.77
2023-02-20T23:07:41.612Z,98427.36
2023-02-20T23:10:28.318Z,98426.34
2023-02-20T23:13:14.619Z,98431.50
2023-02-20T23:16:01.344Z,98432.67
2023-02-20T23:18:48.040Z,98440.17
2023-02-20T23:21:34.641Z,98437.23
2023-02-20T23:24:21.143Z,98442.27
2023-02-20T23:27:07.954Z,98434.45
2023-02-20T23:29:54.557Z,98440.05
2023-02-20T23:32:41.209Z,98449.76
2023-02-20T23:35:27.766Z,98439.48
2023-02-20T23:38:14.369Z,98445.95
2023-02-20T23:41:00.879Z,98443.05
2023-02-20T23:43:47.590Z,98444.96
2023-02-20T23:46:33.875Z,98450.87
2023-02-20T23:49:20.480Z,98447.57
2023-02-20T23:52:15.946Z,98454.30
2023-02-20T23:55:03.118Z,98460.40
2023-02-20T23:57:49.497Z,98452.61
